Time;durP1;ratioP1;P1;durP2;ratioP2;P2;SDS_P1;SDS_P2;PMS_P1;PMS_P2;Temp;Humidity;BMP_temperature;BMP_pressure;BME280_temperature;BME280_humidity;BME280_pressure;Samples;Min_cycle;Max_cycle;Signal;HPM_P1;HPM_P2
2023/01/01 00:02:39;;;;;;;6.5;3.8;;;;;;;15;62.2;99110;;;;
2023/01/01 00:12:40;;;;;;;6.5;3.8;;;;;;;15.2;61.3;99100;;;;
2023/01/01 00:22:39;;;;;;;6.5;3.1;;;;;;;15.1;61.3;99110;;;;
2023/01/01 00:33:40;;;;;;;6.5;3.1;;;;;;;14.8;61.8;99110;;;;
2023/01/01 00:43:39;;;;;;;6.5;3.1;;;;;;;14.6;61.9;99130;;;;
2023/01/01 00:53:40;;;;;;;5.7;3.5;;;;;;;14.5;62.3;99130;;;;
2023/01/01 01:03:40;;;;;;;5.7;3.5;;;;;;;14.7;61.6;99120;;;;
2023/01/01 01:14:40;;;;;;;5.7;3.5;;;;;;;14.8;60.9;99110;;;;
2023/01/01 01:24:40;;;;;;;5.6;2.9;;;;;;;15;60.1;99110;;;;
2023/01/01 01:35:40;;;;;;;5.6;2.9;;;;;;;15.2;59.5;99110;;;;
2023/01/01 01:46:40;;;;;;;5.6;2.9;;;;;;;15.4;58.8;99100;;;;
2023/01/01 01:56:40;;;;;;;5.7;2.9;;;;;;;15.5;58.6;99090;;;;
2023/01/01 02:06:40;;;;;;;5.7;2.9;;;;;;;15.3;58.8;99090;;;;
2023/01/01 02:16:40;;;;;;;5.7;2.9;;;;;;;15.5;58.3;99090;;;;
2023/01/01 02:26:41;;;;;;;4.6;2.8;;;;;;;15.4;58.4;99090;;;;
2023/01/01 02:37:40;;;;;;;4.6;2.8;;;;;;;15.3;58.2;99080;;;;
2023/01/01 02:48:40;;;;;;;4.6;2.8;;;;;;;15.5;57;99060;;;;
2023/01/01 03:00:46;;;;;;;4.6;2.3;;;;;;;15.9;55.4;99050;;;;
2023/01/01 03:09:40;;;;;;;4.6;2.3;;;;;;;15.7;55.9;99050;;;;
2023/01/01 03:19:40;;;;;;;4.6;2.3;;;;;;;15.4;55.9;99050;;;;
2023/01/01 03:30:40;;;;;;;4.6;2.1;;;;;;;15.2;55.6;99070;;;;
2023/01/01 03:40:40;;;;;;;4.6;2.1;;;;;;;15.2;55.6;99070;;;;
2023/01/01 03:50:40;;;;;;;4.6;2.1;;;;;;;15.2;55.8;99070;;;;
2023/01/01 04:01:40;;;;;;;3.5;1.9;;;;;;;15;55.7;99070;;;;
2023/01/01 04:12:12;;;;;;;3.5;1.9;;;;;;;14.7;56.6;99090;;;;
2023/01/01 04:22:40;;;;;;;3.3;1.9;;;;;;;14.2;57.5;99100;;;;
2023/01/01 04:32:40;;;;;;;3.3;1.9;;;;;;;13.5;59.4;99110;;;;
2023/01/01 04:43:40;;;;;;;3.3;1.9;;;;;;;12.7;61.1;99110;;;;
2023/01/01 04:54:40;;;;;;;7.4;3.8;;;;;;;12.1;62.4;99110;;;;
2023/01/01 05:04:40;;;;;;;7.4;3.8;;;;;;;11.7;64;99110;;;;
2023/01/01 05:15:40;;;;;;;7.4;3.8;;;;;;;11.4;65.2;99120;;;;
2023/01/01 05:25:40;;;;;;;8;4.1;;;;;;;11.2;66.3;99130;;;;
2023/01/01 05:36:40;;;;;;;8;4.1;;;;;;;11.2;67.1;99120;;;;
2023/01/01 05:46:40;;;;;;;8;4.1;;;;;;;11.2;66.9;99130;;;;
2023/01/01 05:56:40;;;;;;;8.3;4.6;;;;;;;11;67.9;99150;;;;
2023/01/01 06:07:40;;;;;;;8.3;4.6;;;;;;;10.8;69.1;99190;;;;
2023/01/01 06:17:40;;;;;;;8.3;4.6;;;;;;;10.9;69.8;99220;;;;
2023/01/01 06:28:40;;;;;;;10.5;6.4;;;;;;;11;70.1;99230;;;;
2023/01/01 06:39:40;;;;;;;10.5;6.4;;;;;;;10.9;70.3;99240;;;;
2023/01/01 06:49:40;;;;;;;10.5;6.4;;;;;;;11.1;70.4;99260;;;;
2023/01/01 07:00:40;;;;;;;13;7.9;;;;;;;11;71;99270;;;;
2023/01/01 07:11:40;;;;;;;13;7.9;;;;;;;11;71.3;99270;;;;
2023/01/01 07:21:40;;;;;;;13;7.9;;;;;;;10.9;71.7;99280;;;;
2023/01/01 07:32:40;;;;;;;14.2;10.4;;;;;;;10.8;72;99290;;;;
2023/01/01 07:43:40;;;;;;;14.2;10.4;;;;;;;10.8;72.3;99290;;;;
2023/01/01 07:54:40;;;;;;;14.9;11.1;;;;;;;10.9;72.3;99300;;;;
2023/01/01 08:04:40;;;;;;;14.9;11.1;;;;;;;11;72.3;99300;;;;
2023/01/01 08:14:40;;;;;;;14.9;11.1;;;;;;;11.2;72;99320;;;;
2023/01/01 08:25:40;;;;;;;16.9;12.6;;;;;;;11.3;71.9;99330;;;;
2023/01/01 08:35:40;;;;;;;16.9;12.6;;;;;;;11.5;71.3;99350;;;;
2023/01/01 08:45:40;;;;;;;16.9;12.6;;;;;;;11.7;71.1;99360;;;;
2023/01/01 08:56:40;;;;;;;19.7;13.9;;;;;;;11.9;70.9;99390;;;;
2023/01/01 09:06:40;;;;;;;19.7;13.9;;;;;;;12;70.6;99400;;;;
2023/01/01 09:16:40;;;;;;;19.7;13.9;;;;;;;12.1;70;99410;;;;
2023/01/01 09:27:40;;;;;;;17.6;13;;;;;;;12.2;69.9;99400;;;;
2023/01/01 09:37:40;;;;;;;17.6;13;;;;;;;12.1;69.8;99390;;;;
2023/01/01 09:48:40;;;;;;;17.6;13;;;;;;;11.9;70.1;99390;;;;
2023/01/01 09:59:40;;;;;;;16.8;14;;;;;;;11.9;71.2;99380;;;;
2023/01/01 10:09:40;;;;;;;16.8;14;;;;;;;12.2;72.1;99350;;;;
2023/01/01 10:20:40;;;;;;;16.8;14;;;;;;;12.7;70.6;99320;;;;
2023/01/01 10:30:40;;;;;;;17.9;14.1;;;;;;;13.1;68.3;99330;;;;
2023/01/01 10:40:40;;;;;;;17.9;14.1;;;;;;;13.6;67;99320;;;;
2023/01/01 10:50:40;;;;;;;17.9;14.1;;;;;;;13.9;66.1;99310;;;;
2023/01/01 11:01:40;;;;;;;14.9;9.8;;;;;;;14.4;64.4;99310;;;;
2023/01/01 11:11:40;;;;;;;14.9;9.8;;;;;;;14.7;63.5;99300;;;;
2023/01/01 11:21:40;;;;;;;14.9;9.8;;;;;;;15;62.9;99280;;;;
2023/01/01 11:32:40;;;;;;;16.9;11.8;;;;;;;15.3;62;99280;;;;
2023/01/01 11:42:40;;;;;;;16.9;11.8;;;;;;;15.8;61.1;99280;;;;
2023/01/01 11:52:40;;;;;;;14.6;11.5;;;;;;;16;60.6;99270;;;;
2023/01/01 12:02:40;;;;;;;14.6;11.5;;;;;;;15.9;60.1;99260;;;;
2023/01/01 12:12:40;;;;;;;14.6;11.5;;;;;;;15.8;60.4;99270;;;;
2023/01/01 12:22:40;;;;;;;19;13.2;;;;;;;15.7;61.3;99280;;;;
2023/01/01 12:32:40;;;;;;;19;13.2;;;;;;;15.9;60.5;99280;;;;
2023/01/01 12:43:41;;;;;;;19;13.2;;;;;;;15.9;61.2;99290;;;;
2023/01/01 12:54:40;;;;;;;16.6;12.6;;;;;;;15.8;61.4;99280;;;;
2023/01/01 13:04:40;;;;;;;16.6;12.6;;;;;;;15.8;62.2;99280;;;;
2023/01/01 13:15:41;;;;;;;16.6;12.6;;;;;;;15.7;61.9;99270;;;;
2023/01/01 13:26:40;;;;;;;15.5;12.4;;;;;;;15.5;62;99280;;;;
2023/01/01 13:37:41;;;;;;;15.5;12.4;;;;;;;15;62.6;99290;;;;
2023/01/01 13:47:40;;;;;;;15.5;12.4;;;;;;;14.5;64.4;99320;;;;
2023/01/01 13:58:40;;;;;;;16.1;12.7;;;;;;;14;66.1;99340;;;;
2023/01/01 14:09:40;;;;;;;16.1;12.7;;;;;;;13.5;67.1;99360;;;;
2023/01/01 14:20:40;;;;;;;16.1;12.7;;;;;;;12.9;68.5;99350;;;;
2023/01/01 14:30:41;;;;;;;23.7;19.7;;;;;;;12.4;70.1;99350;;;;
2023/01/01 14:41:40;;;;;;;23.7;19.7;;;;;;;12;71.5;99370;;;;
2023/01/01 14:51:40;;;;;;;24.3;20.7;;;;;;;11.7;72.6;99370;;;;
2023/01/01 15:01:41;;;;;;;24.3;20.7;;;;;;;11.5;73;99380;;;;
2023/01/01 15:12:41;;;;;;;24.3;20.7;;;;;;;11.3;73.2;99410;;;;
2023/01/01 15:23:40;;;;;;;32.1;25.4;;;;;;;10.9;75;99420;;;;
2023/01/01 15:34:42;;;;;;;32.1;25.4;;;;;;;11;76.4;99410;;;;
2023/01/01 15:45:40;;;;;;;32.1;25.4;;;;;;;11;76.2;99420;;;;
2023/01/01 15:56:40;;;;;;;18.7;14.5;;;;;;;10.6;75.4;99440;;;;
2023/01/01 16:07:40;;;;;;;18.7;14.5;;;;;;;10.3;76.2;99440;;;;
2023/01/01 16:18:40;;;;;;;18.7;14.5;;;;;;;10.4;77.6;99450;;;;
2023/01/01 16:28:40;;;;;;;22.2;17.5;;;;;;;10.3;77.3;99460;;;;
2023/01/01 16:39:40;;;;;;;22.2;17.5;;;;;;;10.1;77.1;99450;;;;
2023/01/01 16:50:40;;;;;;;22.2;17.5;;;;;;;9.9;77.9;99470;;;;
2023/01/01 17:01:40;;;;;;;21.7;16.6;;;;;;;9.8;78.2;99480;;;;
2023/01/01 17:11:40;;;;;;;21.7;16.6;;;;;;;9.7;78.7;99480;;;;
2023/01/01 17:21:40;;;;;;;20.7;16.5;;;;;;;9.7;80.1;99470;;;;
2023/01/01 17:32:40;;;;;;;20.7;16.5;;;;;;;9.9;80.4;99440;;;;
2023/01/01 17:42:40;;;;;;;20.7;16.5;;;;;;;9.9;79.7;99450;;;;
2023/01/01 17:52:40;;;;;;;23;19.2;;;;;;;9.7;78.8;99460;;;;
2023/01/01 18:02:40;;;;;;;23;19.2;;;;;;;9.4;79;99470;;;;
2023/01/01 18:12:40;;;;;;;23;19.2;;;;;;;9.2;78.8;99470;;;;
2023/01/01 18:23:40;;;;;;;25.9;20.2;;;;;;;8.9;79.8;99480;;;;
2023/01/01 18:34:42;;;;;;;25.9;20.2;;;;;;;8.8;79.6;99480;;;;
2023/01/01 18:45:40;;;;;;;25.9;20.2;;;;;;;8.6;79.6;99480;;;;
2023/01/01 18:55:40;;;;;;;21.2;16.2;;;;;;;8.5;79.6;99480;;;;
2023/01/01 19:05:40;;;;;;;21.2;16.2;;;;;;;8.6;79.1;99480;;;;
2023/01/01 19:15:40;;;;;;;21.2;16.2;;;;;;;8.6;78.4;99480;;;;
2023/01/01 19:26:40;;;;;;;25.8;16.7;;;;;;;8.4;78.8;99490;;;;
2023/01/01 19:37:40;;;;;;;25.8;16.7;;;;;;;8.1;78.9;99510;;;;
2023/01/01 19:47:42;;;;;;;25.8;16.7;;;;;;;7.7;78.5;99520;;;;
2023/01/01 19:58:40;;;;;;;57.2;43.4;;;;;;;7;80.2;99530;;;;
2023/01/01 20:08:40;;;;;;;57.2;43.4;;;;;;;6.9;81.5;99540;;;;
2023/01/01 20:19:41;;;;;;;57.2;43.4;;;;;;;7.1;84.4;99550;;;;
2023/01/01 20:29:40;;;;;;;50.8;33.6;;;;;;;7.2;84.6;99550;;;;
2023/01/01 20:40:40;;;;;;;50.8;33.6;;;;;;;7.1;84.3;99550;;;;
2023/01/01 20:50:40;;;;;;;50.8;33.6;;;;;;;7;84.5;99550;;;;
2023/01/01 21:00:40;;;;;;;40.5;30.2;;;;;;;7;85.1;99540;;;;
2023/01/01 21:11:40;;;;;;;40.5;30.2;;;;;;;7.2;86.4;99540;;;;
2023/01/01 21:21:40;;;;;;;34.3;24.8;;;;;;;7.3;86.2;99560;;;;
2023/01/01 21:32:40;;;;;;;34.3;24.8;;;;;;;7.2;85.8;99550;;;;
2023/01/01 21:43:40;;;;;;;34.3;24.8;;;;;;;7.2;86;99550;;;;
2023/01/01 21:53:40;;;;;;;37.4;26.2;;;;;;;7.2;86.3;99550;;;;
2023/01/01 22:03:40;;;;;;;37.4;26.2;;;;;;;7.2;86.5;99550;;;;
2023/01/01 22:13:40;;;;;;;37.4;26.2;;;;;;;7.1;86.5;99560;;;;
2023/01/01 22:24:40;;;;;;;37.3;27.6;;;;;;;7;86.6;99550;;;;
2023/01/01 22:34:40;;;;;;;37.3;27.6;;;;;;;7;87;99550;;;;
2023/01/01 22:44:40;;;;;;;37.3;27.6;;;;;;;7;86.9;99550;;;;
2023/01/01 22:54:42;;;;;;;32.5;27.3;;;;;;;7;87.5;99530;;;;
2023/01/01 23:04:40;;;;;;;;;;;;;;;;;;;;;
2023/01/01 23:16:12;;;;;;;32.5;27.3;;;;;;;6.8;87.4;99540;;;;
2023/01/01 23:25:40;;;;;;;33.2;25.5;;;;;;;6.6;87.1;99550;;;;
2023/01/01 23:35:40;;;;;;;33.2;25.5;;;;;;;6.4;87.2;99550;;;;
2023/01/01 23:46:40;;;;;;;33.2;25.5;;;;;;;6.4;87.7;99540;;;;
2023/01/01 23:57:40;;;;;;;31.5;22.8;;;;;;;6.4;88.6;99530;;;;
